Time;durP1;ratioP1;P1;durP2;ratioP2;P2;SDS_P1;SDS_P2;PMS_P1;PMS_P2;Temp;Humidity;BMP_temperature;BMP_pressure;BME280_temperature;BME280_humidity;BME280_pressure;Samples;Min_cycle;Max_cycle;Signal;HPM_P1;HPM_P2
2022/09/22 00:01:01;;;;;;;;;;;;;;;9.22;80.53;102509.50;5095404;28;19912;-34
2022/09/22 00:03:33;;;;;;;;;;;;;;;9.19;80.32;102512.53;5095385;28;19912;-34
2022/09/22 00:05:59;;;;;;;;;;;;;;;9.17;80.54;102516.44;5096137;28;20030;-34
2022/09/22 00:08:25;;;;;;;;;;;;;;;9.14;80.80;102511.41;5095380;28;20003;-34
2022/09/22 00:11:07;;;;;;;;;;;;;;;9.11;81.14;102506.38;5095125;28;20324;-34
2022/09/22 00:13:32;;;;;;;;;;;;;;;9.08;80.95;102502.19;5095453;28;19916;-34
2022/09/22 00:15:59;;;;;;;;;;;;;;;9.08;80.95;102507.59;5094912;28;19919;-34
2022/09/22 00:18:24;;;;;;;;;;;;;;;9.04;80.92;102506.25;5095136;28;19912;-34
2022/09/22 00:20:50;;;;;;;;;;;;;;;9.01;81.16;102510.13;5095037;28;19957;-34
2022/09/22 00:23:15;;;;;;;;;;;;;;;9.01;81.05;102503.91;5095468;28;19912;-34
2022/09/22 00:25:40;;;;;;;;;;;;;;;8.98;81.27;102507.00;5095432;28;20280;-34
2022/09/22 00:28:05;;;;;;;;;;;;;;;8.96;81.16;102500.91;5095204;28;19912;-34
2022/09/22 00:30:30;;;;;;;;;;;;;;;8.93;80.85;102504.81;5094564;28;19927;-34
2022/09/22 00:32:56;;;;;;;;;;;;;;;8.89;81.32;102500.81;5094582;28;19912;-34
2022/09/22 00:35:21;;;;;;;;;;;;;;;8.85;81.57;102507.56;5094499;28;19916;-34
2022/09/22 00:37:46;;;;;;;;;;;;;;;8.82;80.99;102502.53;5095357;28;19919;-34
2022/09/22 00:40:11;;;;;;;;;;;;;;;8.81;81.16;102510.81;5094409;28;20383;-34
2022/09/22 00:42:37;;;;;;;;;;;;;;;8.79;81.26;102496.66;5094690;28;20018;-34
2022/09/22 00:45:02;;;;;;;;;;;;;;;8.76;81.93;102497.84;5094562;28;19911;-34
2022/09/22 00:47:30;;;;;;;;;;;;;;;8.73;81.79;102504.41;5093492;28;19912;-34
2022/09/22 00:49:59;;;;;;;;;;;;;;;8.71;82.08;102505.63;5095206;28;20282;-34
2022/09/22 00:52:34;;;;;;;;;;;;;;;8.72;81.86;102499.22;5094968;28;20306;-34
2022/09/22 00:55:01;;;;;;;;;;;;;;;8.72;82.25;102493.81;5094301;28;19918;-34
2022/09/22 00:57:30;;;;;;;;;;;;;;;8.70;82.00;102498.56;5094224;28;20032;-34
2022/09/22 00:59:55;;;;;;;;;;;;;;;8.67;82.31;102488.97;5094304;28;19912;-34
2022/09/22 01:02:21;;;;;;;;;;;;;;;8.65;82.50;102485.63;5093320;28;19918;-34
2022/09/22 01:04:48;;;;;;;;;;;;;;;8.62;82.23;102479.72;5094477;28;19919;-34
2022/09/22 01:07:13;;;;;;;;;;;;;;;8.60;81.74;102479.09;5094681;28;19965;-34
2022/09/22 01:09:39;;;;;;;;;;;;;;;8.59;82.28;102474.69;5094473;28;20293;-34
2022/09/22 01:12:04;;;;;;;;;;;;;;;8.59;82.15;102480.06;5094703;28;19916;-34
2022/09/22 01:14:45;;;;;;;;;;;;;;;8.56;82.30;102466.97;5093082;28;19912;-34
2022/09/22 01:17:10;;;;;;;;;;;;;;;8.55;82.35;102476.09;5095181;28;20272;-34
2022/09/22 01:19:38;;;;;;;;;;;;;;;8.51;81.95;102462.94;5093434;28;19912;-34
2022/09/22 01:22:12;;;;;;;;;;;;;;;8.50;81.91;102461.28;5093979;28;19912;-34
2022/09/22 01:24:44;;;;;;;;;;;;;;;8.50;82.31;102463.13;5094127;28;20284;-34
2022/09/22 01:27:28;;;;;;;;;;;;;;;8.49;82.30;102462.31;5094460;28;20252;-34
2022/09/22 01:30:02;;;;;;;;;;;;;;;8.48;82.41;102468.69;5094079;28;19912;-34
2022/09/22 01:32:34;;;;;;;;;;;;;;;8.45;82.52;102457.44;5094312;28;20267;-34
2022/09/22 01:35:17;;;;;;;;;;;;;;;8.43;82.15;102457.59;5093796;28;19912;-34
2022/09/22 01:37:45;;;;;;;;;;;;;;;8.41;82.85;102467.72;5093831;28;19919;-34
2022/09/22 01:40:16;;;;;;;;;;;;;;;8.39;82.22;102463.50;5093614;28;19915;-34
2022/09/22 01:42:53;;;;;;;;;;;;;;;8.33;82.47;102459.63;5092277;28;20383;-34
2022/09/22 01:45:21;;;;;;;;;;;;;;;8.31;82.69;102455.47;5093716;28;19912;-34
2022/09/22 01:48:07;;;;;;;;;;;;;;;8.28;82.37;102445.84;5093865;28;20264;-34
2022/09/22 01:50:36;;;;;;;;;;;;;;;8.27;83.06;102449.56;5094058;28;19977;-34
2022/09/22 01:53:08;;;;;;;;;;;;;;;8.22;82.33;102450.09;5093285;28;19919;-34
2022/09/22 01:55:35;;;;;;;;;;;;;;;8.20;82.80;102444.06;5093495;28;20005;-34
2022/09/22 01:58:04;;;;;;;;;;;;;;;8.17;82.91;102438.19;5093518;28;19916;-34
2022/09/22 02:00:31;;;;;;;;;;;;;;;8.17;83.40;102443.56;5093242;28;20402;-34
2022/09/22 02:03:01;;;;;;;;;;;;;;;8.14;82.34;102438.50;5093103;28;19912;-33
2022/09/22 02:05:30;;;;;;;;;;;;;;;8.13;82.99;102434.16;5093423;28;20261;-33
2022/09/22 02:07:58;;;;;;;;;;;;;;;8.12;82.93;102432.47;5093735;28;19927;-33
2022/09/22 02:10:26;;;;;;;;;;;;;;;8.09;83.19;102430.13;5093690;28;19940;-33
2022/09/22 02:12:52;;;;;;;;;;;;;;;8.05;82.79;102428.78;5094018;28;19920;-33
2022/09/22 02:18:04;;;;;;;;;;;;;;;8.04;83.34;102427.13;5097287;28;19923;-33
2022/09/22 02:20:29;;;;;;;;;;;;;;;8.02;82.58;102429.16;5097047;28;19920;-33
2022/09/22 02:22:54;;;;;;;;;;;;;;;8.01;83.24;102420.25;5097862;28;19912;-34
2022/09/22 02:25:22;;;;;;;;;;;;;;;8.00;83.07;102426.63;5097063;28;19916;-34
2022/09/22 02:27:48;;;;;;;;;;;;;;;7.97;83.51;102419.75;5097561;28;19912;-34
2022/09/22 02:30:13;;;;;;;;;;;;;;;7.97;83.31;102411.66;5097130;28;20364;-34
2022/09/22 02:32:42;;;;;;;;;;;;;;;7.94;83.40;102417.38;5097691;28;19912;-34
2022/09/22 02:35:07;;;;;;;;;;;;;;;7.91;83.31;102417.75;5096974;28;20049;-34
2022/09/22 02:37:49;;;;;;;;;;;;;;;7.88;82.81;102418.09;5097528;28;20279;-34
2022/09/22 02:40:22;;;;;;;;;;;;;;;7.87;83.92;102415.59;5097313;28;19925;-34
2022/09/22 02:43:07;;;;;;;;;;;;;;;7.86;82.96;102411.22;5096949;28;20370;-33
2022/09/22 02:45:50;;;;;;;;;;;;;;;7.84;83.49;102416.75;5034868;28;19913;-34
2022/09/22 02:48:27;;;;;;;;;;;;;;;7.83;83.02;102412.41;5017934;28;19913;-34
2022/09/22 02:50:53;;;;;;;;;;;;;;;7.83;83.56;102407.00;5034208;28;19913;-34
2022/09/22 02:53:18;;;;;;;;;;;;;;;7.81;82.89;102406.34;5034762;28;19920;-34
2022/09/22 02:55:44;;;;;;;;;;;;;;;7.79;83.19;102405.69;5034150;28;19913;-34
2022/09/22 02:58:10;;;;;;;;;;;;;;;7.78;82.76;102401.31;5034430;28;19952;-34
2022/09/22 03:00:36;;;;;;;;;;;;;;;7.76;82.98;102395.28;5034289;28;19913;-34
2022/09/22 03:03:01;;;;;;;;;;;;;;;7.74;83.17;102398.13;5034142;28;20270;-34
2022/09/22 03:05:26;;;;;;;;;;;;;;;7.74;83.87;102405.38;5034671;28;19913;-34
2022/09/22 03:07:52;;;;;;;;;;;;;;;7.72;84.11;102402.00;5033994;28;19913;-34
2022/09/22 03:10:17;;;;;;;;;;;;;;;7.69;83.33;102396.97;5034072;28;19923;-34
2022/09/22 03:12:42;;;;;;;;;;;;;;;7.66;83.55;102397.31;5033750;28;19917;-34
2022/09/22 03:15:10;;;;;;;;;;;;;;;7.64;83.86;102394.78;5033735;28;19936;-34
2022/09/22 03:17:36;;;;;;;;;;;;;;;7.62;83.23;102406.75;5034527;28;20314;-34
2022/09/22 03:20:03;;;;;;;;;;;;;;;7.61;83.67;102402.38;5034008;28;20013;-34
2022/09/22 03:22:28;;;;;;;;;;;;;;;7.59;83.86;102397.16;5060784;28;19919;-34
2022/09/22 03:24:53;;;;;;;;;;;;;;;7.60;83.99;102392.63;5095186;28;19912;-34
2022/09/22 03:27:18;;;;;;;;;;;;;;;7.55;83.72;102390.44;5096526;28;19912;-34
2022/09/22 03:29:43;;;;;;;;;;;;;;;7.53;83.32;102391.66;5096129;28;19915;-34
2022/09/22 03:32:09;;;;;;;;;;;;;;;7.49;83.79;102383.91;5096152;28;20322;-34
2022/09/22 03:34:34;;;;;;;;;;;;;;;7.47;84.01;102385.94;5095714;28;19912;-34
2022/09/22 03:36:59;;;;;;;;;;;;;;;7.45;83.77;102387.94;5096851;28;19919;-34
2022/09/22 03:39:24;;;;;;;;;;;;;;;7.44;83.46;102377.38;5095921;28;19912;-34
2022/09/22 03:41:50;;;;;;;;;;;;;;;7.44;84.38;102382.75;5095856;28;20010;-34
2022/09/22 03:44:15;;;;;;;;;;;;;;;7.42;83.78;102380.25;5095541;28;20284;-34
2022/09/22 03:46:40;;;;;;;;;;;;;;;7.41;83.60;102381.22;5095716;28;19920;-34
2022/09/22 03:49:05;;;;;;;;;;;;;;;7.40;83.99;102387.63;5095638;28;19912;-34
2022/09/22 03:51:33;;;;;;;;;;;;;;;7.40;83.75;102376.88;5095710;28;19916;-34
2022/09/22 03:53:58;;;;;;;;;;;;;;;7.39;83.79;102385.97;5096156;28;19933;-34
2022/09/22 03:56:23;;;;;;;;;;;;;;;7.37;83.87;102382.63;5095269;28;19912;-34
2022/09/22 03:58:48;;;;;;;;;;;;;;;7.35;84.22;102378.41;5095857;28;19916;-34
2022/09/22 04:01:14;;;;;;;;;;;;;;;7.31;84.32;102380.59;5095365;28;19912;-34
2022/09/22 04:03:39;;;;;;;;;;;;;;;7.30;83.93;102376.22;5095850;28;19919;-34
2022/09/22 04:06:05;;;;;;;;;;;;;;;7.30;83.70;102370.00;5095375;28;19930;-34
2022/09/22 04:08:30;;;;;;;;;;;;;;;7.27;83.92;102371.22;5095091;28;19916;-34
2022/09/22 04:10:56;;;;;;;;;;;;;;;7.23;84.04;102365.31;5095191;28;19912;-34
2022/09/22 04:13:21;;;;;;;;;;;;;;;7.22;84.89;102368.16;5096374;28;19923;-34
2022/09/22 04:15:47;;;;;;;;;;;;;;;7.20;84.47;102365.66;5095227;28;20007;-34
2022/09/22 04:18:13;;;;;;;;;;;;;;;7.18;84.10;102366.84;5095394;28;20344;-34
2022/09/22 04:20:39;;;;;;;;;;;;;;;7.15;85.07;102368.03;5093833;28;19965;-34
2022/09/22 04:23:05;;;;;;;;;;;;;;;7.14;84.15;102357.44;5095324;28;19912;-34
2022/09/22 04:25:31;;;;;;;;;;;;;;;7.13;84.19;102361.97;5095724;28;19919;-34
2022/09/22 04:27:56;;;;;;;;;;;;;;;7.11;84.17;102360.47;5095582;28;19924;-34
2022/09/22 04:30:21;;;;;;;;;;;;;;;7.08;84.52;102358.97;5094927;28;19922;-34
2022/09/22 04:32:46;;;;;;;;;;;;;;;7.08;84.82;102358.97;5094924;28;20351;-34
2022/09/22 04:35:12;;;;;;;;;;;;;;;7.07;84.67;102359.13;5094755;28;20325;-34
2022/09/22 04:37:37;;;;;;;;;;;;;;;7.06;85.11;102362.81;5093577;28;20372;-34
2022/09/22 04:40:02;;;;;;;;;;;;;;;7.03;84.98;102352.41;5094423;28;20282;-34
2022/09/22 04:42:27;;;;;;;;;;;;;;;7.02;84.94;102354.25;5095382;28;20360;-34
2022/09/22 04:44:55;;;;;;;;;;;;;;;7.03;84.72;102361.34;5094652;28;19912;-34
2022/09/22 04:47:21;;;;;;;;;;;;;;;7.03;84.88;102361.34;5094910;28;19958;-34
2022/09/22 04:49:46;;;;;;;;;;;;;;;7.01;85.10;102359.81;5094818;28;19948;-34
2022/09/22 04:52:11;;;;;;;;;;;;;;;6.97;84.26;102354.75;5094857;28;19912;-34
2022/09/22 04:54:36;;;;;;;;;;;;;;;6.91;84.85;102354.59;5095200;28;19912;-34
2022/09/22 04:57:02;;;;;;;;;;;;;;;6.91;84.69;102347.38;5094850;28;20268;-34
2022/09/22 04:59:37;;;;;;;;;;;;;;;6.95;84.58;102361.34;5091507;28;19917;-34
2022/09/22 05:02:02;;;;;;;;;;;;;;;6.94;84.48;102360.50;5091243;28;19947;-34
2022/09/22 05:04:28;;;;;;;;;;;;;;;6.94;84.58;102362.34;5091548;28;19916;-34
2022/09/22 05:06:54;;;;;;;;;;;;;;;6.92;85.07;102356.28;5091110;28;19916;-34
2022/09/22 05:09:19;;;;;;;;;;;;;;;6.87;85.08;102356.78;5090766;28;20007;-34
2022/09/22 05:11:47;;;;;;;;;;;;;;;6.82;85.15;102355.63;5090452;28;20448;-34
2022/09/22 05:14:13;;;;;;;;;;;;;;;6.83;85.54;102358.16;5090432;28;19916;-34
2022/09/22 05:16:38;;;;;;;;;;;;;;;6.86;85.46;102356.97;5090651;28;19916;-34
2022/09/22 05:19:03;;;;;;;;;;;;;;;6.86;85.03;102360.50;5090763;28;19969;-34
2022/09/22 05:21:28;;;;;;;;;;;;;;;6.85;84.74;102363.38;5090936;28;20267;-34
2022/09/22 05:23:54;;;;;;;;;;;;;;;6.84;85.46;102362.53;5090036;28;19969;-34
2022/09/22 05:26:20;;;;;;;;;;;;;;;6.84;85.28;102359.84;5090271;28;19917;-34
2022/09/22 05:28:45;;;;;;;;;;;;;;;6.82;85.66;102367.22;5091077;28;19950;-34
2022/09/22 05:31:10;;;;;;;;;;;;;;;6.83;85.56;102358.16;5089876;28;19923;-34
2022/09/22 05:33:36;;;;;;;;;;;;;;;6.83;84.94;102366.22;5090140;28;19920;-34
2022/09/22 05:36:01;;;;;;;;;;;;;;;6.82;86.00;102364.53;5089906;28;19916;-34
2022/09/22 05:38:27;;;;;;;;;;;;;;;6.81;85.81;102370.91;5090147;28;19970;-34
2022/09/22 05:40:52;;;;;;;;;;;;;;;6.80;85.24;102374.63;5090098;28;20336;-35
2022/09/22 05:43:18;;;;;;;;;;;;;;;6.81;85.18;102370.91;5090152;28;19967;-35
2022/09/22 05:45:43;;;;;;;;;;;;;;;6.82;85.79;102369.06;5090001;28;20030;-35
2022/09/22 05:48:08;;;;;;;;;;;;;;;6.82;85.49;102369.91;5090200;28;20257;-35
2022/09/22 05:50:34;;;;;;;;;;;;;;;6.85;85.65;102377.63;5089683;28;20030;-35
2022/09/22 05:53:06;;;;;;;;;;;;;;;6.85;86.01;102376.81;5090112;28;19917;-35
2022/09/22 05:55:32;;;;;;;;;;;;;;;6.89;85.56;102372.78;5089718;28;19999;-35
2022/09/22 05:57:57;;;;;;;;;;;;;;;6.94;86.40;102368.56;5097148;28;20325;-35
2022/09/22 06:00:22;;;;;;;;;;;;;;;7.00;85.92;102374.28;5092604;28;19920;-34
2022/09/22 06:02:47;;;;;;;;;;;;;;;7.05;85.78;102379.97;5092069;28;19959;-34
2022/09/22 06:05:13;;;;;;;;;;;;;;;7.09;85.50;102384.84;5110203;28;19916;-35
2022/09/22 06:07:38;;;;;;;;;;;;;;;7.12;85.32;102372.88;5109949;28;20007;-35
2022/09/22 06:10:04;;;;;;;;;;;;;;;7.15;85.29;102380.63;5101750;28;19920;-35
2022/09/22 06:12:29;;;;;;;;;;;;;;;7.16;85.25;102379.63;5096090;28;20400;-35
2022/09/22 06:14:55;;;;;;;;;;;;;;;7.17;86.14;102386.66;5096282;28;19916;-34
2022/09/22 06:17:21;;;;;;;;;;;;;;;7.20;85.50;102387.19;5096663;28;19950;-35
2022/09/22 06:19:49;;;;;;;;;;;;;;;7.23;85.61;102386.00;5096656;28;20363;-35
2022/09/22 06:22:14;;;;;;;;;;;;;;;7.26;86.35;102380.25;5096573;28;20364;-34
2022/09/22 06:24:39;;;;;;;;;;;;;;;7.34;86.00;102382.94;5096354;28;19969;-34
2022/09/22 06:27:04;;;;;;;;;;;;;;;7.39;86.12;102379.75;5096534;28;20352;-35
2022/09/22 06:29:29;;;;;;;;;;;;;;;7.45;85.82;102379.03;5096525;28;20372;-34
2022/09/22 06:31:55;;;;;;;;;;;;;;;7.51;87.35;102367.56;5096178;28;20003;-35
2022/09/22 06:34:20;;;;;;;;;;;;;;;7.59;86.33;102377.50;5077969;28;19917;-35
2022/09/22 06:36:45;;;;;;;;;;;;;;;7.65;86.61;102374.09;5096759;28;20058;-35
2022/09/22 06:39:11;;;;;;;;;;;;;;;7.74;87.33;102362.28;5096081;28;19951;-35
2022/09/22 06:41:37;;;;;;;;;;;;;;;7.83;86.79;102363.09;5096535;28;19916;-35
2022/09/22 06:44:04;;;;;;;;;;;;;;;7.90;87.54;102372.97;5096235;28;19916;-35
2022/09/22 06:46:31;;;;;;;;;;;;;;;7.98;87.64;102361.31;5095908;28;20276;-35
2022/09/22 06:48:57;;;;;;;;;;;;;;;8.05;87.62;102364.13;5095600;28;19916;-35
2022/09/22 06:51:26;;;;;;;;;;;;;;;8.13;87.25;102366.78;5095790;28;19939;-35
2022/09/22 06:53:53;;;;;;;;;;;;;;;8.20;88.81;102373.16;5096076;28;20284;-35
2022/09/22 06:56:19;;;;;;;;;;;;;;;8.26;87.71;102372.44;5095695;28;20340;-35
2022/09/22 06:58:44;;;;;;;;;;;;;;;8.34;88.13;102368.84;5095431;28;19946;-35
2022/09/22 07:01:10;;;;;;;;;;;;;;;8.40;88.35;102363.63;5095288;28;20394;-35
2022/09/22 07:03:37;;;;;;;;;;;;;;;8.46;87.53;102370.16;5096370;28;19922;-35
2022/09/22 07:06:02;;;;;;;;;;;;;;;8.51;87.98;102363.19;5095721;28;19916;-34
2022/09/22 07:08:28;;;;;;;;;;;;;;;8.59;88.76;102364.13;5095152;28;20389;-35
2022/09/22 07:10:55;;;;;;;;;;;;;;;8.64;88.08;102359.91;5095503;28;20364;-35
2022/09/22 07:13:21;;;;;;;;;;;;;;;8.71;88.17;102358.13;5096196;28;19985;-35
2022/09/22 07:15:46;;;;;;;;;;;;;;;8.77;88.11;102360.09;5095230;28;19920;-35
2022/09/22 07:18:11;;;;;;;;;;;;;;;8.84;87.77;102360.22;5095131;28;19942;-35
2022/09/22 07:20:36;;;;;;;;;;;;;;;8.88;87.85;102361.53;5094391;28;19920;-35
2022/09/22 07:23:02;;;;;;;;;;;;;;;8.93;88.29;102367.22;5076372;28;19955;-35
2022/09/22 07:25:27;;;;;;;;;;;;;;;8.98;88.73;102356.72;5095049;28;20078;-35
2022/09/22 07:27:53;;;;;;;;;;;;;;;9.05;87.99;102355.97;5095277;28;19916;-35
2022/09/22 07:30:20;;;;;;;;;;;;;;;9.12;88.84;102354.22;5094941;28;19916;-35
2022/09/22 07:32:45;;;;;;;;;;;;;;;9.16;88.51;102348.25;5095230;28;19920;-34
2022/09/22 07:35:11;;;;;;;;;;;;;;;9.24;88.25;102352.75;5094929;28;19950;-34
2022/09/22 07:37:40;;;;;;;;;;;;;;;9.31;89.21;102358.22;5094811;28;19916;-34
2022/09/22 07:40:06;;;;;;;;;;;;;;;9.38;89.24;102357.31;5095021;28;19970;-34
2022/09/22 07:42:31;;;;;;;;;;;;;;;9.47;88.87;102349.97;5095602;28;19933;-34
2022/09/22 07:45:12;;;;;;;;;;;;;;;9.56;89.27;102354.22;5095159;28;20421;-34
2022/09/22 07:50:21;;;;;;;;;;;;;;;9.76;88.59;102357.16;5094780;28;19971;-34
2022/09/22 07:52:51;;;;;;;;;;;;;;;9.84;89.04;102351.66;5094586;28;19956;-34
2022/09/22 07:55:16;;;;;;;;;;;;;;;9.91;88.79;102352.59;5094206;28;20386;-35
2022/09/22 07:57:41;;;;;;;;;;;;;;;9.99;89.46;102355.16;5094429;28;20106;-34
2022/09/22 08:00:07;;;;;;;;;;;;;;;10.07;89.11;102355.06;5095065;28;19916;-35
2022/09/22 08:02:32;;;;;;;;;;;;;;;10.16;88.51;102349.56;5094128;28;19920;-34
2022/09/22 08:05:00;;;;;;;;;;;;;;;10.28;88.31;102356.13;5094306;28;19916;-34
2022/09/22 08:07:25;;;;;;;;;;;;;;;10.35;87.95;102348.94;5110543;28;19916;-34
2022/09/22 08:09:50;;;;;;;;;;;;;;;10.45;88.54;102341.34;5094238;28;20009;-34
2022/09/22 08:12:16;;;;;;;;;;;;;;;10.53;88.44;102343.91;5094697;28;19920;-34
2022/09/22 08:14:41;;;;;;;;;;;;;;;10.63;88.16;102340.88;5093868;28;19916;-34
2022/09/22 08:17:11;;;;;;;;;;;;;;;10.73;88.55;102341.38;5094778;28;19916;-34
2022/09/22 08:19:36;;;;;;;;;;;;;;;10.89;87.99;102350.25;5094112;28;20237;-34
2022/09/22 08:22:02;;;;;;;;;;;;;;;10.99;88.27;102342.63;5093742;28;19920;-35
2022/09/22 08:24:27;;;;;;;;;;;;;;;11.11;88.15;102340.19;5093925;28;19916;-34
2022/09/22 08:26:54;;;;;;;;;;;;;;;11.22;87.65;102334.22;5094024;28;19961;-34
2022/09/22 08:29:20;;;;;;;;;;;;;;;11.33;87.09;102328.28;5094541;28;19923;-34
2022/09/22 08:31:46;;;;;;;;;;;;;;;11.41;86.98;102332.66;5094217;28;20372;-35
2022/09/22 08:34:12;;;;;;;;;;;;;;;11.48;87.29;102328.97;5093619;28;19939;-35
2022/09/22 08:36:38;;;;;;;;;;;;;;;11.56;87.10;102330.66;5093879;28;19916;-35
2022/09/22 08:39:04;;;;;;;;;;;;;;;11.66;87.45;102330.28;5093782;28;20341;-35
2022/09/22 08:41:37;;;;;;;;;;;;;;;11.76;86.48;102322.59;5093842;28;19943;-35
2022/09/22 08:44:05;;;;;;;;;;;;;;;11.88;86.29;102328.31;5094053;28;19916;-35
2022/09/22 08:46:31;;;;;;;;;;;;;;;11.98;85.54;102326.06;5094155;28;19923;-34
2022/09/22 08:51:50;;;;;;;;;;;;;;;12.21;85.03;102320.28;5094269;28;19961;-35
2022/09/22 08:54:16;;;;;;;;;;;;;;;12.34;83.57;102328.44;5093902;28;20482;-34
2022/09/22 08:56:56;;;;;;;;;;;;;;;12.43;84.76;102320.94;5093329;28;20026;-34
2022/09/22 08:59:48;;;;;;;;;;;;;;;12.58;84.15;102322.38;5093340;28;20372;-35
2022/09/22 09:02:32;;;;;;;;;;;;;;;12.76;84.21;102320.94;5091011;28;20261;-35
2022/09/22 09:05:01;;;;;;;;;;;;;;;12.91;83.95;102326.97;5093811;28;19916;-34
2022/09/22 09:07:44;;;;;;;;;;;;;;;13.03;82.89;102322.59;5093285;28;20403;-35
2022/09/22 09:10:28;;;;;;;;;;;;;;;13.15;81.93;102330.91;5093204;28;19916;-35
2022/09/22 09:12:59;;;;;;;;;;;;;;;13.27;81.93;102331.94;5094028;28;19916;-34
2022/09/22 09:15:40;;;;;;;;;;;;;;;13.38;80.48;102330.50;5093167;28;19923;-35
2022/09/22 09:18:11;;;;;;;;;;;;;;;13.53;81.37;102333.78;5093110;28;19916;-35
2022/09/22 09:20:43;;;;;;;;;;;;;;;13.66;80.82;102327.44;5093890;28;20328;-35
2022/09/22 09:23:16;;;;;;;;;;;;;;;13.79;80.16;102326.56;5093642;28;20368;-35
2022/09/22 09:25:42;;;;;;;;;;;;;;;13.90;80.53;102323.97;5094009;28;19916;-34
2022/09/22 09:28:19;;;;;;;;;;;;;;;13.99;80.62;102321.03;5093652;28;20241;-35
2022/09/22 09:30:46;;;;;;;;;;;;;;;14.10;80.19;102325.75;5093256;28;19923;-35
2022/09/22 09:33:17;;;;;;;;;;;;;;;14.19;78.38;102321.72;5093580;28;20341;-35
2022/09/22 09:35:48;;;;;;;;;;;;;;;14.29;79.20;102327.53;5094074;28;19916;-35
2022/09/22 09:38:14;;;;;;;;;;;;;;;14.40;78.92;102320.56;5093511;28;19924;-35
2022/09/22 09:40:39;;;;;;;;;;;;;;;14.49;76.08;102321.97;5093262;28;20011;-35
2022/09/22 09:43:04;;;;;;;;;;;;;;;14.59;76.34;102318.75;5093455;28;20015;-35
2022/09/22 09:45:50;;;;;;;;;;;;;;;14.72;76.66;102320.53;5095737;28;20037;-35
2022/09/22 09:48:34;;;;;;;;;;;;;;;14.83;74.38;102317.91;5096759;28;19977;-35
2022/09/22 09:51:04;;;;;;;;;;;;;;;14.99;75.65;102319.25;5097702;28;20011;-35
2022/09/22 09:53:36;;;;;;;;;;;;;;;15.11;76.15;102313.88;5097466;28;20012;-35
2022/09/22 09:56:01;;;;;;;;;;;;;;;15.21;76.00;102314.19;5097172;28;20329;-34
2022/09/22 10:01:12;;;;;;;;;;;;;;;15.38;72.79;102314.44;5097158;28;19959;-34
2022/09/22 10:03:42;;;;;;;;;;;;;;;15.43;70.74;102318.13;5097103;28;20011;-34
2022/09/22 10:06:09;;;;;;;;;;;;;;;15.49;69.50;102308.22;5096616;28;20041;-34
2022/09/22 10:08:43;;;;;;;;;;;;;;;15.59;70.59;102305.78;5097146;28;20379;-34
2022/09/22 10:11:10;;;;;;;;;;;;;;;15.72;71.34;102298.53;5096223;28;20371;-35
2022/09/22 10:13:37;;;;;;;;;;;;;;;15.85;69.80;102298.34;5096287;28;19964;-35
2022/09/22 10:16:05;;;;;;;;;;;;;;;15.99;70.55;102299.81;5096384;28;19916;-35
2022/09/22 10:18:39;;;;;;;;;;;;;;;16.09;69.00;102300.09;5096687;28;19960;-35
2022/09/22 10:21:14;;;;;;;;;;;;;;;16.19;69.79;102300.34;5097196;28;20280;-35
2022/09/22 10:23:40;;;;;;;;;;;;;;;16.28;68.23;102295.38;5097094;28;19923;-35
2022/09/22 10:26:12;;;;;;;;;;;;;;;16.25;62.55;102289.56;5096234;28;20007;-35
2022/09/22 10:28:37;;;;;;;;;;;;;;;16.30;67.21;102282.38;5096509;28;19917;-35
2022/09/22 10:31:03;;;;;;;;;;;;;;;16.41;66.09;102280.72;5096191;28;20295;-35
2022/09/22 10:33:28;;;;;;;;;;;;;;;16.55;66.19;102276.69;5096472;28;19927;-35
2022/09/22 10:36:10;;;;;;;;;;;;;;;16.67;63.58;102282.97;5096947;28;20344;-35
2022/09/22 10:38:39;;;;;;;;;;;;;;;16.78;65.15;102280.53;5096582;28;19923;-35
2022/09/22 10:41:06;;;;;;;;;;;;;;;16.84;60.45;102274.13;5096876;28;19956;-35
2022/09/22 10:43:45;;;;;;;;;;;;;;;16.91;62.39;102270.19;5096268;28;19999;-36
2022/09/22 10:46:10;;;;;;;;;;;;;;;17.03;60.97;102261.13;5096548;28;19923;-35
2022/09/22 10:48:59;;;;;;;;;;;;;;;17.10;63.00;102268.16;5096459;28;19916;-35
2022/09/22 10:51:30;;;;;;;;;;;;;;;17.19;60.69;102263.97;5078576;28;20292;-35
2022/09/22 10:54:16;;;;;;;;;;;;;;;17.23;61.76;102262.44;5096319;28;19916;-35
2022/09/22 10:56:53;;;;;;;;;;;;;;;17.25;56.08;102259.44;5078320;28;20325;-35
2022/09/22 10:59:31;;;;;;;;;;;;;;;17.28;57.30;102258.16;5096297;28;19979;-35
2022/09/22 11:01:56;;;;;;;;;;;;;;;17.31;55.41;102257.66;5095697;28;19973;-34
2022/09/22 11:04:54;;;;;;;;;;;;;;;17.37;57.89;102256.66;5096111;28;19920;-35
2022/09/22 11:13:21;;;;;;;;;;;;;;;17.59;55.07;102249.47;5033825;28;19927;-34
2022/09/22 11:16:21;;;;;;;;;;;;;;;17.72;56.79;102246.44;5032800;28;19928;-34
2022/09/22 11:18:48;;;;;;;;;;;;;;;17.84;52.20;102245.59;4993441;28;19918;-34
2022/09/22 11:21:31;;;;;;;;;;;;;;;17.92;56.53;102248.75;4993622;28;19929;-35
2022/09/22 11:24:08;;;;;;;;;;;;;;;18.00;54.10;102250.25;4994173;28;19918;-35
2022/09/22 11:26:45;;;;;;;;;;;;;;;18.08;55.09;102247.13;4977704;28;19925;-35
2022/09/22 11:29:14;;;;;;;;;;;;;;;18.18;52.86;102249.19;4993550;28;19957;-35
2022/09/22 11:31:57;;;;;;;;;;;;;;;18.24;54.83;102240.00;4993273;28;19940;-35
2022/09/22 11:34:25;;;;;;;;;;;;;;;18.33;55.35;102229.47;4993518;28;19929;-35
2022/09/22 11:36:56;;;;;;;;;;;;;;;18.35;52.28;102228.16;4993351;28;20292;-35
2022/09/22 11:39:40;;;;;;;;;;;;;;;18.41;55.44;102229.88;4977471;28;20251;-36
2022/09/22 11:42:15;;;;;;;;;;;;;;;18.46;52.92;102231.88;4999894;28;19972;-36
2022/09/22 11:45:01;;;;;;;;;;;;;;;18.48;52.30;102224.22;5032948;28;20036;-35
2022/09/22 11:47:35;;;;;;;;;;;;;;;18.50;53.35;102219.34;5032936;28;20350;-35
2022/09/22 11:50:01;;;;;;;;;;;;;;;18.44;51.68;102212.91;5032186;28;19924;-35
2022/09/22 11:52:32;;;;;;;;;;;;;;;18.23;52.85;102214.53;5055728;28;19920;-34
2022/09/22 11:55:17;;;;;;;;;;;;;;;18.05;54.87;102212.03;5094687;28;19916;-35
2022/09/22 11:57:46;;;;;;;;;;;;;;;17.91;54.76;102206.06;5094683;28;19921;-35
2022/09/22 12:00:16;;;;;;;;;;;;;;;18.06;53.57;102200.03;5094853;28;20368;-35
2022/09/22 12:02:45;;;;;;;;;;;;;;;18.25;52.22;102201.44;5095349;28;19920;-35
2022/09/22 12:05:10;;;;;;;;;;;;;;;18.40;53.89;102200.00;5094144;28;19916;-35
2022/09/22 12:07:38;;;;;;;;;;;;;;;18.51;53.97;102194.41;5094526;28;20018;-35
2022/09/22 12:10:11;;;;;;;;;;;;;;;18.64;51.73;102186.91;5094644;28;19923;-35
2022/09/22 12:12:36;;;;;;;;;;;;;;;18.74;52.38;102184.38;5095122;28;19992;-35
2022/09/22 12:15:14;;;;;;;;;;;;;;;18.72;50.08;102176.38;5094495;28;19968;-34
2022/09/22 12:17:43;;;;;;;;;;;;;;;18.74;51.63;102176.16;5094780;28;20011;-35
2022/09/22 12:20:15;;;;;;;;;;;;;;;18.80;51.34;102175.13;5094149;28;19940;-35
2022/09/22 12:22:55;;;;;;;;;;;;;;;18.91;51.64;102167.88;5094676;28;19916;-35
2022/09/22 12:25:39;;;;;;;;;;;;;;;19.06;51.68;102162.56;5094536;28;19965;-35
2022/09/22 12:28:14;;;;;;;;;;;;;;;19.22;52.78;102158.91;5094047;28;19916;-35
2022/09/22 12:30:50;;;;;;;;;;;;;;;19.27;48.13;102153.47;5094586;28;19916;-35
2022/09/22 12:33:15;;;;;;;;;;;;;;;19.35;50.66;102152.19;5094643;28;19916;-35
2022/09/22 12:35:42;;;;;;;;;;;;;;;19.44;51.64;102149.84;5093978;28;19923;-35
2022/09/22 12:38:11;;;;;;;;;;;;;;;19.42;49.29;102150.09;5094447;28;19916;-35
2022/09/22 12:40:40;;;;;;;;;;;;;;;19.41;52.18;102144.84;5093592;28;19924;-35
2022/09/22 12:43:12;;;;;;;;;;;;;;;19.41;48.20;102142.94;5094467;28;20008;-35
2022/09/22 12:45:40;;;;;;;;;;;;;;;19.40;47.25;102137.72;5094706;28;19917;-35
2022/09/22 12:48:09;;;;;;;;;;;;;;;19.45;50.08;102132.28;5093815;28;19923;-35
2022/09/22 12:50:38;;;;;;;;;;;;;;;19.53;49.01;102129.06;5094104;28;19916;-36
2022/09/22 12:53:22;;;;;;;;;;;;;;;19.60;48.41;102132.44;5093898;28;20015;-35
2022/09/22 12:55:51;;;;;;;;;;;;;;;19.68;48.68;102129.25;5093969;28;19963;-35
2022/09/22 12:58:19;;;;;;;;;;;;;;;19.73;48.51;102121.06;5094120;28;19924;-35
2022/09/22 13:00:45;;;;;;;;;;;;;;;19.75;47.29;102123.53;5093472;28;20338;-35
2022/09/22 13:03:25;;;;;;;;;;;;;;;19.72;47.61;102111.16;5093433;28;19919;-35
2022/09/22 13:05:51;;;;;;;;;;;;;;;19.73;46.93;102123.81;5093599;28;19922;-35
2022/09/22 13:08:21;;;;;;;;;;;;;;;19.71;46.82;102122.38;5093362;28;19917;-35